Flinter Rose — PBUB — position and weather

sailwx.info

Track history (hours):
 
Tides and Currents Weather Stations Pressure Air Temp Water Temp Dewpoint Dewpoint Depression Visibility Wind Speed Wind Dir Waves Ship Positions

Flinter Rose

Last reported at 2015-Jan-31 12:16 UTC. Time now 2015-Jan-31 22:44 UTC.
Position N 38°46' E 008°54'.

Length 101 m; draft 4.3 m.

Type: Cargo ship. MMSI: 246227000.

Date/timePositionNaut miles runAvg speedWind from/ knotsBaromVisibWave heightAir tempDewpointWater temp
2015-Jan-31 12:16N 38°46' E 008°54'7 6.9
2015-Jan-31 11:11N 38°48' E 009°03'5 6.9
2015-Jan-31 10:24N 38°50' E 009°09'6 7.3
2015-Jan-31 09:33N 38°52' E 009°17'8 8.0
2015-Jan-31 08:32N 38°54' E 009°27'14 9.6
2015-Jan-31 07:04N 39°03' E 009°41'1610.3
2015-Jan-31 05:30N 39°18' E 009°48'23210.9
2015-Jan-30 08:17N 43°09' E 009°21'38 5.6
2015-Jan-30 01:33N 43°41' E 008°54'6 5.8
2015-Jan-30 00:33N 43°46' E 008°57'5 5.3
2015-Jan-29 23:33N 43°51' E 008°60'5 4.8
2015-Jan-29 22:33N 43°56' E 009°02'4 4.2
2015-Jan-29 21:34N 43°60' E 009°03'4 4.5
2015-Jan-29 20:33N 44°04' E 009°02'10 9.5
2015-Jan-29 19:33N 44°14' E 008°60'1010.3
2015-Jan-29 18:33N 44°24' E 008°56'1 0.7
2015-Jan-29 17:31N 44°24' E 008°56'0 0.0
2015-Jan-29 16:31N 44°24' E 008°56'0 0.0
2015-Jan-29 15:31N 44°24' E 008°56'0 0.0
2015-Jan-29 14:31N 44°24' E 008°56'0 0.0
2015-Jan-29 13:31N 44°24' E 008°56'0 0.0
2015-Jan-29 12:31N 44°24' E 008°56'0 0.0
2015-Jan-29 11:31N 44°24' E 008°56'0 0.0
2015-Jan-29 10:31N 44°24' E 008°56'0 0.0
2015-Jan-29 09:25N 44°24' E 008°56'0 0.0
2015-Jan-29 08:31N 44°24' E 008°56'0 0.0
2015-Jan-29 07:25N 44°24' E 008°56'0 0.0
2015-Jan-29 06:31N 44°24' E 008°56'0 0.0
2015-Jan-29 05:31N 44°24' E 008°56'0 0.0
2015-Jan-29 04:31N 44°24' E 008°56'0 0.0
2015-Jan-29 03:31N 44°24' E 008°56'0 0.0
2015-Jan-29 02:31N 44°24' E 008°56'0 0.0
2015-Jan-29 01:31N 44°24' E 008°56'0 0.0
2015-Jan-29 00:22N 44°24' E 008°56'0 0.0
2015-Jan-28 23:31N 44°24' E 008°56'0 0.0
2015-Jan-28 22:31N 44°24' E 008°56'0 0.0
2015-Jan-28 21:31N 44°24' E 008°56'0 0.0
2015-Jan-28 20:31N 44°24' E 008°56'0 0.0
2015-Jan-28 19:31N 44°24' E 008°56'0 0.0
2015-Jan-28 18:31N 44°24' E 008°56'0 0.0
2015-Jan-28 17:31N 44°24' E 008°56'0 0.0
2015-Jan-28 16:31N 44°24' E 008°56'0 0.0
2015-Jan-28 15:25N 44°24' E 008°56'0 0.0
2015-Jan-28 14:31N 44°24' E 008°56'0 0.0
2015-Jan-28 13:31N 44°24' E 008°56'0 0.0
2015-Jan-28 12:30N 44°24' E 008°56'0 0.0
2015-Jan-28 11:30N 44°24' E 008°56'0 0.0
2015-Jan-28 10:30N 44°24' E 008°56'0 0.0
2015-Jan-28 09:30N 44°24' E 008°56'0 0.0
2015-Jan-28 08:24N 44°24' E 008°56'0 0.0
2015-Jan-28 07:33N 44°24' E 008°56'4 4.2
2015-Jan-28 06:33N 44°21' E 008°59'9 9.3
2015-Jan-28 05:33N 44°12' E 008°57'6 5.9
2015-Jan-28 04:33N 44°15' E 009°04'9 9.3
2015-Jan-28 03:33N 44°09' E 008°54'0 0.2
2015-Jan-28 02:33N 44°09' E 008°54'1010.3
2015-Jan-28 01:33N 44°15' E 009°05'9 8.9
2015-Jan-28 00:33N 44°10' E 008°55'9 9.5
2015-Jan-27 23:33N 44°04' E 008°44'6 5.6
2015-Jan-27 22:33N 43°59' E 008°44'1010.1
2015-Jan-27 21:33N 43°53' E 008°56'1010.5
2015-Jan-27 20:33N 43°47' E 009°07'1110.6
2015-Jan-27 19:33N 43°40' E 009°19'1010.4
2015-Jan-27 18:33N 43°33' E 009°29'1110.6
2015-Jan-27 17:33N 43°26' E 009°41'1010.5
2015-Jan-27 16:33N 43°18' E 009°50'1110.5
2015-Jan-27 15:33N 43°11' E 010°01'7 7.4
2015-Jan-27 14:33N 43°07' E 010°09'31 0.6
2015-Jan-25 11:28N 42°40' E 010°30'197 9.7
2015-Jan-24 15:04N 39°25' E 009°48'33 8.6
2015-Jan-24 11:14N 38°58' E 009°25'710.8
2015-Jan-24 10:32N 38°56' E 009°15'1110.9
2015-Jan-24 09:33N 38°52' E 009°02'1110.7
2015-Jan-24 08:33N 38°49' E 008°49'1410.6
2015-Jan-24 07:14N 38°48' E 008°31'810.4
2015-Jan-24 06:28N 38°49' E 008°21'224 8.6
2015-Jan-23 04:28N 39°12' E 003°35'7 7.9
2015-Jan-23 03:32N 39°07' E 003°27'8 8.6
2015-Jan-23 02:33N 39°02' E 003°18'10 9.9
2015-Jan-23 01:33N 38°56' E 003°08'10 9.6
2015-Jan-23 00:33N 38°50' E 002°59'10 9.6
2015-Jan-22 23:33N 38°43' E 002°50'10 9.6
2015-Jan-22 22:33N 38°37' E 002°41'  
Track history (hours):
 
Tides and Currents Weather Stations Pressure Air Temp Water Temp Dewpoint Dewpoint Depression Visibility Wind Speed Wind Dir Waves Ship Positions

Flinter Rose

Last reported at 2015-Jan-31 12:16 UTC. Time now 2015-Jan-31 22:44 UTC.
Position N 38°46' E 008°54'.

Length 101 m; draft 4.3 m.

Type: Cargo ship. MMSI: 246227000.

Date/timePositionNaut miles runAvg speedWind from/ knotsBaromVisibWave heightAir tempDewpointWater temp
2015-Jan-31 12:16N 38°46' E 008°54'7 6.9
2015-Jan-31 11:11N 38°48' E 009°03'5 6.9
2015-Jan-31 10:24N 38°50' E 009°09'6 7.3
2015-Jan-31 09:33N 38°52' E 009°17'8 8.0
2015-Jan-31 08:32N 38°54' E 009°27'14 9.6
2015-Jan-31 07:04N 39°03' E 009°41'1610.3
2015-Jan-31 05:30N 39°18' E 009°48'23210.9
2015-Jan-30 08:17N 43°09' E 009°21'38 5.6
2015-Jan-30 01:33N 43°41' E 008°54'6 5.8
2015-Jan-30 00:33N 43°46' E 008°57'5 5.3
2015-Jan-29 23:33N 43°51' E 008°60'5 4.8
2015-Jan-29 22:33N 43°56' E 009°02'4 4.2
2015-Jan-29 21:34N 43°60' E 009°03'4 4.5
2015-Jan-29 20:33N 44°04' E 009°02'10 9.5
2015-Jan-29 19:33N 44°14' E 008°60'1010.3
2015-Jan-29 18:33N 44°24' E 008°56'1 0.7
2015-Jan-29 17:31N 44°24' E 008°56'0 0.0
2015-Jan-29 16:31N 44°24' E 008°56'0 0.0
2015-Jan-29 15:31N 44°24' E 008°56'0 0.0
2015-Jan-29 14:31N 44°24' E 008°56'0 0.0
2015-Jan-29 13:31N 44°24' E 008°56'0 0.0
2015-Jan-29 12:31N 44°24' E 008°56'0 0.0
2015-Jan-29 11:31N 44°24' E 008°56'0 0.0
2015-Jan-29 10:31N 44°24' E 008°56'0 0.0
2015-Jan-29 09:25N 44°24' E 008°56'0 0.0
2015-Jan-29 08:31N 44°24' E 008°56'0 0.0
2015-Jan-29 07:25N 44°24' E 008°56'0 0.0
2015-Jan-29 06:31N 44°24' E 008°56'0 0.0
2015-Jan-29 05:31N 44°24' E 008°56'0 0.0
2015-Jan-29 04:31N 44°24' E 008°56'0 0.0
2015-Jan-29 03:31N 44°24' E 008°56'0 0.0
2015-Jan-29 02:31N 44°24' E 008°56'0 0.0
2015-Jan-29 01:31N 44°24' E 008°56'0 0.0
2015-Jan-29 00:22N 44°24' E 008°56'0 0.0
2015-Jan-28 23:31N 44°24' E 008°56'0 0.0
2015-Jan-28 22:31N 44°24' E 008°56'0 0.0
2015-Jan-28 21:31N 44°24' E 008°56'0 0.0
2015-Jan-28 20:31N 44°24' E 008°56'0 0.0
2015-Jan-28 19:31N 44°24' E 008°56'0 0.0
2015-Jan-28 18:31N 44°24' E 008°56'0 0.0
2015-Jan-28 17:31N 44°24' E 008°56'0 0.0
2015-Jan-28 16:31N 44°24' E 008°56'0 0.0
2015-Jan-28 15:25N 44°24' E 008°56'0 0.0
2015-Jan-28 14:31N 44°24' E 008°56'0 0.0
2015-Jan-28 13:31N 44°24' E 008°56'0 0.0
2015-Jan-28 12:30N 44°24' E 008°56'0 0.0
2015-Jan-28 11:30N 44°24' E 008°56'0 0.0
2015-Jan-28 10:30N 44°24' E 008°56'0 0.0
2015-Jan-28 09:30N 44°24' E 008°56'0 0.0
2015-Jan-28 08:24N 44°24' E 008°56'0 0.0
2015-Jan-28 07:33N 44°24' E 008°56'4 4.2
2015-Jan-28 06:33N 44°21' E 008°59'9 9.3
2015-Jan-28 05:33N 44°12' E 008°57'6 5.9
2015-Jan-28 04:33N 44°15' E 009°04'9 9.3
2015-Jan-28 03:33N 44°09' E 008°54'0 0.2
2015-Jan-28 02:33N 44°09' E 008°54'1010.3
2015-Jan-28 01:33N 44°15' E 009°05'9 8.9
2015-Jan-28 00:33N 44°10' E 008°55'9 9.5
2015-Jan-27 23:33N 44°04' E 008°44'6 5.6
2015-Jan-27 22:33N 43°59' E 008°44'1010.1
2015-Jan-27 21:33N 43°53' E 008°56'1010.5
2015-Jan-27 20:33N 43°47' E 009°07'1110.6
2015-Jan-27 19:33N 43°40' E 009°19'1010.4
2015-Jan-27 18:33N 43°33' E 009°29'1110.6
2015-Jan-27 17:33N 43°26' E 009°41'1010.5
2015-Jan-27 16:33N 43°18' E 009°50'1110.5
2015-Jan-27 15:33N 43°11' E 010°01'7 7.4
2015-Jan-27 14:33N 43°07' E 010°09'31 0.6
2015-Jan-25 11:28N 42°40' E 010°30'197 9.7
2015-Jan-24 15:04N 39°25' E 009°48'33 8.6
2015-Jan-24 11:14N 38°58' E 009°25'710.8
2015-Jan-24 10:32N 38°56' E 009°15'1110.9
2015-Jan-24 09:33N 38°52' E 009°02'1110.7
2015-Jan-24 08:33N 38°49' E 008°49'1410.6
2015-Jan-24 07:14N 38°48' E 008°31'810.4
2015-Jan-24 06:28N 38°49' E 008°21'224 8.6
2015-Jan-23 04:28N 39°12' E 003°35'7 7.9
2015-Jan-23 03:32N 39°07' E 003°27'8 8.6
2015-Jan-23 02:33N 39°02' E 003°18'10 9.9
2015-Jan-23 01:33N 38°56' E 003°08'10 9.6
2015-Jan-23 00:33N 38°50' E 002°59'10 9.6
2015-Jan-22 23:33N 38°43' E 002°50'10 9.6
2015-Jan-22 22:33N 38°37' E 002°41'  

Dump ship's entire track history